Time;durP1;ratioP1;P1;durP2;ratioP2;P2;SDS_P1;SDS_P2;PMS_P1;PMS_P2;Temp;Humidity;BMP_temperature;BMP_pressure;BME280_temperature;BME280_humidity;BME280_pressure;Samples;Min_cycle;Max_cycle;Signal;HPM_P1;HPM_P2
2022/09/01 00:02:17;;;;;;;4.07;3.78;;;22.50;60.60;;;;;;5017265;28;20702;-72
2022/09/01 00:04:45;;;;;;;4.28;3.97;;;22.50;60.50;;;;;;5017034;28;20254;-72
2022/09/01 00:07:12;;;;;;;4.57;3.85;;;22.50;60.50;;;;;;5017140;28;20283;-72
2022/09/01 00:09:39;;;;;;;4.10;3.80;;;22.50;60.60;;;;;;5017466;28;20196;-72
2022/09/01 00:12:07;;;;;;;4.68;4.20;;;22.50;60.50;;;;;;5018077;28;20215;-72
2022/09/01 00:14:36;;;;;;;4.05;3.70;;;22.50;60.50;;;;;;5017119;28;20231;-72
2022/09/01 00:17:07;;;;;;;4.30;3.92;;;22.50;60.50;;;;;;5017114;28;20200;-72
2022/09/01 00:19:36;;;;;;;3.83;3.53;;;22.50;60.50;;;;;;5017482;28;20219;-72
2022/09/01 00:22:03;;;;;;;4.20;3.90;;;22.50;60.80;;;;;;5018352;28;20204;-72
2022/09/01 00:24:31;;;;;;;3.92;3.63;;;22.50;60.50;;;;;;5016732;28;20202;-72
2022/09/01 00:26:58;;;;;;;3.80;3.50;;;22.50;60.40;;;;;;5034323;28;20192;-72
2022/09/01 00:29:25;;;;;;;4.20;3.90;;;22.50;60.40;;;;;;5016678;28;20199;-72
2022/09/01 00:31:52;;;;;;;3.83;3.53;;;22.50;60.40;;;;;;5016638;28;20224;-72
2022/09/01 00:34:21;;;;;;;4.18;3.88;;;22.50;60.40;;;;;;5000441;28;20285;-72
2022/09/01 00:36:48;;;;;;;3.97;3.65;;;22.40;60.30;;;;;;5016517;28;20199;-72
2022/09/01 00:39:15;;;;;;;3.90;3.60;;;22.40;60.30;;;;;;5016779;28;20570;-72
2022/09/01 00:41:43;;;;;;;3.95;3.65;;;22.40;60.20;;;;;;5016494;28;20621;-72
2022/09/01 00:44:12;;;;;;;3.40;3.20;;;22.40;60.30;;;;;;5016751;28;20196;-72
2022/09/01 00:46:42;;;;;;;4.07;3.78;;;22.40;60.30;;;;;;5016464;28;20291;-72
2022/09/01 00:49:11;;;;;;;4.20;3.80;;;22.40;60.30;;;;;;5016399;28;20287;-72
2022/09/01 00:51:40;;;;;;;4.10;3.80;;;22.40;60.20;;;;;;5016534;28;20216;-72
2022/09/01 00:54:08;;;;;;;3.50;3.30;;;22.40;60.30;;;;;;5016612;28;20195;-72
2022/09/01 00:56:35;;;;;;;3.83;3.50;;;22.40;60.20;;;;;;5016302;28;20207;-72
2022/09/01 00:59:02;;;;;;;3.95;3.60;;;22.40;60.20;;;;;;5034335;28;20708;-72
2022/09/01 01:01:30;;;;;;;3.47;3.17;;;22.40;60.20;;;;;;5016070;28;20686;-72
2022/09/01 01:04:00;;;;;;;4.30;3.58;;;22.40;60.20;;;;;;5000037;28;20685;-72
2022/09/01 01:06:31;;;;;;;3.83;3.53;;;22.40;60.20;;;;;;5016915;28;20204;-72
2022/09/01 01:09:00;;;;;;;3.80;3.50;;;22.40;60.20;;;;;;5016227;28;20199;-72
2022/09/01 01:11:29;;;;;;;4.03;3.63;;;22.30;60.00;;;;;;5015452;28;20220;-72
2022/09/01 01:13:58;;;;;;;4.57;3.50;;;22.40;60.20;;;;;;5016051;28;20207;-72
2022/09/01 01:16:27;;;;;;;3.80;3.38;;;22.30;60.10;;;;;;5016164;28;20203;-72
2022/09/01 01:18:54;;;;;;;3.78;3.47;;;22.30;60.10;;;;;;5016617;28;20191;-72
2022/09/01 01:24:30;;;;;;;3.92;3.63;;;22.30;60.10;;;;;;5016660;28;20200;-72
2022/09/01 01:26:59;;;;;;;3.65;3.45;;;22.30;60.10;;;;;;5016026;28;20196;-72
2022/09/01 01:29:28;;;;;;;3.67;3.38;;;22.20;60.00;;;;;;5015942;28;20674;-72
2022/09/01 01:31:55;;;;;;;3.67;3.38;;;22.30;60.20;;;;;;5016084;28;20250;-72
2022/09/01 01:34:23;;;;;;;3.88;3.40;;;22.20;60.10;;;;;;5016189;28;20192;-72
2022/09/01 01:36:51;;;;;;;3.67;3.38;;;22.20;60.10;;;;;;5016118;28;20192;-72
2022/09/01 01:39:20;;;;;;;3.50;3.20;;;22.20;60.10;;;;;;5016162;28;20254;-72
2022/09/01 01:41:49;;;;;;;4.03;3.50;;;22.20;60.20;;;;;;5016691;28;20214;-72
2022/09/01 01:44:20;;;;;;;3.63;3.33;;;22.20;60.10;;;;;;5017031;28;20674;-72
2022/09/01 01:46:49;;;;;;;3.83;3.53;;;22.20;60.10;;;;;;5015998;28;20200;-72
2022/09/01 01:49:19;;;;;;;3.97;3.58;;;22.20;60.20;;;;;;5015953;28;20208;-72
2022/09/01 01:51:48;;;;;;;3.90;3.60;;;22.20;60.10;;;;;;5033988;28;20212;-72
2022/09/01 01:54:17;;;;;;;3.42;3.15;;;22.20;61.00;;;;;;4999730;28;20199;-72
2022/09/01 01:56:44;;;;;;;3.50;3.22;;;22.10;60.00;;;;;;5017601;28;20206;-72
2022/09/01 01:59:15;;;;;;;4.00;3.20;;;22.10;60.00;;;;;;5017893;28;20246;-72
2022/09/01 02:01:49;;;;;;;3.60;3.30;;;22.10;60.00;;;;;;5016539;28;20212;-72
2022/09/01 02:04:18;;;;;;;3.45;3.15;;;22.10;60.00;;;;;;5017592;28;20238;-72
2022/09/01 02:06:46;;;;;;;3.38;3.08;;;22.10;60.00;;;;;;5016597;28;20298;-72
2022/09/01 02:09:14;;;;;;;3.55;3.28;;;22.10;60.00;;;;;;5015594;28;20272;-72
2022/09/01 02:11:41;;;;;;;3.63;3.40;;;22.10;60.00;;;;;;5015570;28;20235;-72
2022/09/01 02:14:09;;;;;;;3.28;3.08;;;22.10;60.00;;;;;;5016074;28;20200;-72
2022/09/01 02:16:36;;;;;;;3.67;3.38;;;22.10;60.00;;;;;;5015593;28;20207;-72
2022/09/01 02:19:07;;;;;;;3.40;3.10;;;22.10;60.00;;;;;;5015560;28;20610;-72
2022/09/01 02:21:34;;;;;;;3.88;3.50;;;22.10;60.00;;;;;;5016872;28;20220;-72
2022/09/01 02:24:03;;;;;;;3.65;3.28;;;22.10;60.00;;;;;;5019506;28;20561;-72
2022/09/01 02:26:33;;;;;;;3.50;3.20;;;22.10;60.00;;;;;;5019226;28;20222;-74
2022/09/01 02:29:03;;;;;;;4.00;3.15;;;22.10;60.00;;;;;;5019392;28;20196;-72
2022/09/01 02:31:30;;;;;;;3.33;3.10;;;22.00;59.90;;;;;;5036993;28;20215;-72
2022/09/01 02:34:00;;;;;;;3.42;3.13;;;22.10;60.00;;;;;;5018866;28;20218;-72
2022/09/01 02:36:31;;;;;;;3.40;3.10;;;22.10;60.00;;;;;;5018702;28;20693;-72
2022/09/01 02:38:58;;;;;;;3.40;3.10;;;22.10;60.00;;;;;;5018785;28;20187;-72
2022/09/01 02:41:27;;;;;;;3.45;3.15;;;22.00;60.00;;;;;;5018969;28;20234;-72
2022/09/01 02:43:56;;;;;;;3.60;3.30;;;22.00;60.00;;;;;;5019244;28;20662;-72
2022/09/01 02:46:23;;;;;;;3.67;3.38;;;22.00;60.00;;;;;;5018625;28;20196;-72
2022/09/01 02:48:51;;;;;;;3.15;2.88;;;22.00;60.00;;;;;;5018735;28;20196;-72
2022/09/01 02:51:19;;;;;;;3.55;3.30;;;22.00;60.00;;;;;;5018686;28;20307;-72
2022/09/01 02:53:51;;;;;;;3.60;3.30;;;22.00;59.90;;;;;;5018402;28;20224;-72
2022/09/01 02:56:19;;;;;;;3.70;3.40;;;22.00;59.90;;;;;;5019010;28;20192;-72
2022/09/01 02:58:46;;;;;;;3.30;3.10;;;22.00;59.90;;;;;;5036372;28;20211;-72
2022/09/01 03:01:15;;;;;;;3.65;3.35;;;22.00;59.90;;;;;;5018353;28;20709;-72
2022/09/01 03:03:42;;;;;;;3.38;3.08;;;22.00;59.90;;;;;;5018428;28;20196;-72
2022/09/01 03:06:11;;;;;;;3.33;3.13;;;22.00;59.90;;;;;;5018469;28;20206;-72
2022/09/01 03:08:39;;;;;;;3.58;3.28;;;22.00;59.90;;;;;;5018494;28;20200;-72
2022/09/01 03:11:09;;;;;;;3.25;2.97;;;22.00;59.90;;;;;;5019067;28;20560;-72
2022/09/01 03:13:37;;;;;;;3.80;3.50;;;21.90;59.80;;;;;;5018186;28;20290;-72
2022/09/01 03:16:05;;;;;;;3.78;3.47;;;21.90;59.60;;;;;;5018153;28;20192;-72
2022/09/01 03:18:32;;;;;;;3.65;3.40;;;22.00;59.50;;;;;;5018693;28;20200;-72
2022/09/01 03:21:01;;;;;;;3.40;3.10;;;22.00;59.30;;;;;;5018224;28;20220;-72
2022/09/01 03:23:30;;;;;;;3.20;3.00;;;22.00;59.30;;;;;;5018585;28;20239;-72
2022/09/01 03:25:57;;;;;;;4.15;3.45;;;22.00;59.10;;;;;;5018004;28;20199;-72
2022/09/01 03:28:25;;;;;;;4.47;3.70;;;22.10;59.10;;;;;;5017979;28;20200;-72
2022/09/01 03:30:54;;;;;;;3.42;3.20;;;22.10;59.00;;;;;;5017645;28;20685;-72
2022/09/01 03:33:22;;;;;;;3.45;3.20;;;22.20;58.90;;;;;;5017352;28;20800;-72
2022/09/01 03:35:49;;;;;;;3.72;3.42;;;22.20;58.70;;;;;;5017832;28;20193;-72
2022/09/01 03:38:22;;;;;;;4.43;3.00;;;22.20;58.60;;;;;;5017653;28;20267;-72
2022/09/01 03:40:51;;;;;;;3.53;3.22;;;22.30;58.60;;;;;;5002161;28;20255;-72
2022/09/01 03:43:22;;;;;;;3.20;3.00;;;22.30;58.50;;;;;;5017500;28;20627;-72
2022/09/01 03:45:50;;;;;;;3.90;3.60;;;22.30;58.30;;;;;;5017502;28;20573;-72
2022/09/01 03:48:18;;;;;;;3.70;3.40;;;22.30;58.30;;;;;;5001020;28;20233;-72
2022/09/01 03:50:46;;;;;;;3.42;3.10;;;22.30;58.20;;;;;;5017306;28;20303;-72
2022/09/01 03:53:13;;;;;;;3.50;3.08;;;22.30;58.10;;;;;;5018399;28;20247;-72
2022/09/01 03:55:40;;;;;;;3.45;3.15;;;22.30;58.10;;;;;;5017544;28;20204;-72
2022/09/01 03:58:09;;;;;;;3.42;3.13;;;22.30;58.00;;;;;;5017179;28;20206;-72
2022/09/01 04:00:38;;;;;;;3.45;3.13;;;22.40;58.00;;;;;;5017092;28;20228;-73
2022/09/01 04:03:10;;;;;;;3.25;2.95;;;22.40;58.00;;;;;;5017740;28;20196;-74
2022/09/01 04:05:37;;;;;;;3.35;3.05;;;22.30;58.00;;;;;;5017413;28;20200;-71
2022/09/01 04:08:08;;;;;;;3.22;3.03;;;22.30;57.90;;;;;;5017403;28;20246;-71
2022/09/01 04:10:38;;;;;;;3.08;2.88;;;22.30;57.90;;;;;;5017252;28;20222;-71
2022/09/01 04:13:10;;;;;;;3.50;3.20;;;22.30;57.90;;;;;;5017974;28;20224;-71
2022/09/01 04:15:37;;;;;;;3.30;2.95;;;22.30;57.90;;;;;;5037245;28;20195;-72
2022/09/01 04:18:08;;;;;;;3.22;2.97;;;22.30;57.90;;;;;;5017798;28;20203;-72
2022/09/01 04:20:47;;;;;;;3.60;3.30;;;22.30;57.90;;;;;;5017592;28;20728;-72
2022/09/01 04:23:24;;;;;;;3.63;3.05;;;22.30;57.90;;;;;;5017499;28;20654;-73
2022/09/01 04:25:54;;;;;;;3.30;3.10;;;22.20;58.00;;;;;;5017344;28;20184;-72
2022/09/01 04:28:23;;;;;;;3.40;3.10;;;22.30;58.00;;;;;;5017537;28;20685;-72
2022/09/01 04:30:54;;;;;;;3.10;2.80;;;22.30;58.00;;;;;;5016925;28;20645;-73
2022/09/01 04:33:24;;;;;;;3.17;2.95;;;22.20;58.00;;;;;;5017133;28;20235;-72
2022/09/01 04:35:55;;;;;;;2.90;2.70;;;22.20;58.00;;;;;;5016751;28;20200;-73
2022/09/01 04:38:23;;;;;;;3.10;2.90;;;22.20;57.90;;;;;;5016833;28;20196;-72
2022/09/01 04:40:52;;;;;;;3.30;3.00;;;22.20;57.90;;;;;;5016729;28;20678;-73
2022/09/01 04:43:20;;;;;;;2.80;2.60;;;22.20;57.90;;;;;;5016675;28;20569;-73
2022/09/01 04:45:50;;;;;;;3.38;3.08;;;22.20;57.90;;;;;;5016399;28;20211;-73
2022/09/01 04:48:19;;;;;;;3.08;2.88;;;22.20;57.90;;;;;;5016829;28;20658;-72
2022/09/01 04:50:48;;;;;;;2.88;2.67;;;22.20;57.90;;;;;;5016420;28;20654;-73
2022/09/01 04:53:23;;;;;;;3.50;3.20;;;22.20;58.00;;;;;;5016534;28;20216;-73
2022/09/01 04:55:53;;;;;;;3.08;2.80;;;22.20;58.00;;;;;;5016524;28;20224;-73
2022/09/01 04:58:21;;;;;;;2.90;2.70;;;22.20;58.00;;;;;;5017129;28;20577;-73
2022/09/01 05:00:50;;;;;;;3.08;2.88;;;22.20;58.60;;;;;;5016527;28;20219;-73
2022/09/01 05:03:21;;;;;;;2.90;2.70;;;22.20;58.00;;;;;;5016467;28;20663;-72
2022/09/01 05:06:14;;;;;;;3.30;3.05;;;22.20;58.00;;;;;;4987985;28;20212;-72
2022/09/01 05:08:48;;;;;;;2.92;2.72;;;22.20;58.00;;;;;;5016554;28;20205;-72
2022/09/01 05:11:31;;;;;;;3.00;2.80;;;22.20;58.00;;;;;;5016278;28;20309;-72
2022/09/01 05:14:06;;;;;;;2.90;2.70;;;22.20;58.00;;;;;;5016409;28;20748;-73
2022/09/01 05:16:34;;;;;;;3.78;2.90;;;22.20;57.90;;;;;;5016268;28;20261;-72
2022/09/01 05:19:01;;;;;;;3.08;2.83;;;22.20;57.90;;;;;;5016702;28;20287;-72
2022/09/01 05:21:33;;;;;;;2.97;2.78;;;22.20;57.80;;;;;;5016293;28;20215;-72
2022/09/01 05:24:03;;;;;;;3.17;2.97;;;22.20;57.80;;;;;;5017028;28;20219;-72
2022/09/01 05:26:33;;;;;;;3.55;2.70;;;22.20;57.70;;;;;;5016175;28;20261;-73
2022/09/01 05:29:01;;;;;;;3.70;3.20;;;22.30;57.70;;;;;;5015926;28;20192;-73
2022/09/01 05:31:33;;;;;;;2.83;2.63;;;22.30;57.60;;;;;;5033436;28;20285;-73
2022/09/01 05:34:02;;;;;;;3.00;2.70;;;22.30;57.60;;;;;;5015794;28;20740;-73
2022/09/01 05:36:32;;;;;;;3.00;2.80;;;22.30;57.60;;;;;;5016135;28;20199;-73
2022/09/01 05:39:02;;;;;;;3.25;2.95;;;22.30;57.60;;;;;;5000225;28;20242;-72
2022/09/01 05:41:29;;;;;;;3.15;2.92;;;22.30;58.20;;;;;;5015897;28;20266;-72
2022/09/01 05:43:57;;;;;;;3.20;3.00;;;22.30;58.20;;;;;;5016846;28;20250;-72
2022/09/01 05:46:25;;;;;;;3.42;3.13;;;22.30;57.50;;;;;;5015702;28;20204;-72
2022/09/01 05:48:53;;;;;;;3.00;2.80;;;22.30;57.50;;;;;;5016342;28;20200;-72
2022/09/01 05:51:21;;;;;;;3.10;2.90;;;22.40;57.50;;;;;;5015756;28;20223;-72
2022/09/01 05:53:50;;;;;;;3.25;3.05;;;22.30;57.50;;;;;;5016054;28;20621;-72
2022/09/01 05:56:19;;;;;;;3.10;2.90;;;22.40;57.50;;;;;;5016620;28;20208;-72
2022/09/01 05:58:47;;;;;;;3.40;3.10;;;22.30;57.50;;;;;;5021308;28;20198;-72
2022/09/01 06:01:20;;;;;;;3.10;2.83;;;22.40;57.50;;;;;;5020898;28;20679;-72
2022/09/01 06:03:53;;;;;;;3.53;3.22;;;22.30;57.40;;;;;;5020224;28;20191;-73
2022/09/01 06:06:21;;;;;;;2.90;2.70;;;22.30;57.40;;;;;;5020089;28;20707;-72
2022/09/01 06:08:49;;;;;;;2.92;2.72;;;22.40;57.50;;;;;;5019410;28;20204;-72
2022/09/01 06:11:17;;;;;;;3.97;2.95;;;22.40;57.30;;;;;;5003394;28;20307;-72
2022/09/01 06:13:46;;;;;;;3.88;3.22;;;22.40;57.30;;;;;;5019345;28;20254;-72
2022/09/01 06:16:14;;;;;;;3.50;3.20;;;22.40;57.10;;;;;;5019325;28;20219;-72
2022/09/01 06:18:42;;;;;;;3.30;3.10;;;22.50;57.10;;;;;;5019229;28;20197;-72
2022/09/01 06:21:13;;;;;;;3.30;3.10;;;22.50;56.90;;;;;;5019531;28;20247;-72
2022/09/01 06:23:42;;;;;;;3.28;2.97;;;22.60;56.90;;;;;;5019596;28;20192;-72
2022/09/01 06:26:17;;;;;;;3.25;2.97;;;22.60;56.70;;;;;;5020086;28;20571;-72
2022/09/01 06:28:46;;;;;;;3.53;3.20;;;22.60;56.60;;;;;;5019048;28;20279;-73
2022/09/01 06:31:16;;;;;;;3.25;2.95;;;22.70;56.70;;;;;;5018927;28;20732;-72
2022/09/01 06:33:44;;;;;;;4.40;3.03;;;22.70;56.60;;;;;;5018899;28;20208;-73
2022/09/01 06:36:11;;;;;;;3.30;3.00;;;22.80;56.60;;;;;;5019128;28;20192;-72
2022/09/01 06:38:39;;;;;;;3.20;3.00;;;22.80;56.50;;;;;;5018797;28;20662;-72
2022/09/01 06:41:11;;;;;;;3.70;3.40;;;22.90;56.40;;;;;;5018964;28;20213;-72
2022/09/01 06:43:40;;;;;;;3.25;2.95;;;22.90;56.40;;;;;;5018773;28;20194;-72
2022/09/01 06:46:09;;;;;;;3.15;2.95;;;22.90;56.20;;;;;;5019235;28;20196;-72
2022/09/01 06:48:38;;;;;;;4.82;3.30;;;23.00;56.20;;;;;;5018489;28;20552;-72
2022/09/01 06:51:12;;;;;;;3.50;3.20;;;23.00;56.10;;;;;;5018632;28;20270;-73
2022/09/01 06:53:40;;;;;;;3.58;3.13;;;23.10;56.10;;;;;;5018464;28;20216;-72
2022/09/01 06:56:12;;;;;;;3.38;3.08;;;23.10;56.00;;;;;;5018405;28;20658;-72
2022/09/01 06:58:43;;;;;;;3.50;3.20;;;23.10;55.90;;;;;;5018328;28;20571;-72
2022/09/01 07:01:14;;;;;;;3.47;3.28;;;23.20;55.90;;;;;;5018274;28;20224;-72
2022/09/01 07:03:41;;;;;;;3.03;2.83;;;23.20;55.90;;;;;;5018398;28;20642;-72
2022/09/01 07:06:26;;;;;;;4.00;3.10;;;23.30;55.80;;;;;;5018683;28;20204;-72
2022/09/01 07:09:24;;;;;;;4.07;3.10;;;23.40;55.70;;;;;;5017624;28;20283;-72
2022/09/01 07:12:09;;;;;;;3.33;3.13;;;23.60;55.40;;;;;;5036005;28;20223;-72
2022/09/01 07:14:36;;;;;;;3.60;3.30;;;23.80;55.50;;;;;;5018420;28;20557;-72
2022/09/01 07:17:10;;;;;;;3.30;3.00;;;24.00;54.30;;;;;;5018034;28;20251;-72
2022/09/01 07:19:38;;;;;;;3.30;3.00;;;24.30;54.00;;;;;;5018120;28;20203;-73
2022/09/01 07:22:05;;;;;;;3.30;3.10;;;24.50;53.70;;;;;;5017814;28;20303;-72
2022/09/01 07:24:34;;;;;;;3.28;3.00;;;24.70;53.30;;;;;;5017844;28;20200;-72
2022/09/01 07:27:26;;;;;;;3.20;2.90;;;24.80;52.90;;;;;;5036333;28;20188;-72
2022/09/01 07:29:55;;;;;;;3.30;3.10;;;25.00;52.70;;;;;;5018887;28;20274;-72
2022/09/01 07:32:23;;;;;;;3.67;3.38;;;25.10;52.40;;;;;;5001699;28;20647;-72
2022/09/01 07:34:51;;;;;;;3.63;3.30;;;25.10;52.30;;;;;;5017792;28;20223;-72
2022/09/01 07:37:21;;;;;;;4.47;4.07;;;25.20;52.20;;;;;;5017790;28;20204;-72
2022/09/01 07:39:49;;;;;;;3.58;3.28;;;25.20;52.20;;;;;;5018071;28;20283;-72
2022/09/01 07:42:35;;;;;;;3.40;3.20;;;25.20;52.10;;;;;;5035320;28;20602;-72
2022/09/01 07:45:22;;;;;;;4.93;3.53;;;25.20;52.20;;;;;;5034963;28;20235;-72
2022/09/01 07:48:01;;;;;;;3.45;3.15;;;25.10;52.30;;;;;;5017499;28;20720;-72
2022/09/01 07:50:29;;;;;;;3.40;3.10;;;25.10;52.50;;;;;;5017366;28;20271;-72
2022/09/01 07:52:57;;;;;;;4.18;3.25;;;24.90;52.60;;;;;;5017607;28;20219;-72
2022/09/01 07:55:24;;;;;;;3.60;3.30;;;24.90;52.90;;;;;;5017323;28;20629;-72
2022/09/01 07:57:51;;;;;;;3.40;3.10;;;24.70;53.00;;;;;;5017529;28;20202;-72
2022/09/01 08:00:20;;;;;;;3.40;3.10;;;24.70;53.10;;;;;;5017119;28;20196;-72
2022/09/01 08:02:50;;;;;;;3.50;3.13;;;24.70;54.00;;;;;;5017562;28;20204;-72
2022/09/01 08:05:21;;;;;;;3.90;3.60;;;24.60;53.40;;;;;;5017295;28;20644;-72
2022/09/01 08:07:48;;;;;;;3.83;3.53;;;24.50;53.50;;;;;;5017308;28;20192;-72
2022/09/01 08:10:16;;;;;;;3.55;3.35;;;24.50;53.80;;;;;;5016902;28;20208;-72
2022/09/01 08:12:44;;;;;;;3.65;3.33;;;24.50;53.80;;;;;;5016952;28;20196;-72
2022/09/01 08:15:12;;;;;;;3.85;3.47;;;24.40;53.70;;;;;;5017249;28;20760;-72
2022/09/01 08:17:39;;;;;;;3.60;3.30;;;24.40;53.80;;;;;;5016917;28;20689;-72
2022/09/01 08:20:10;;;;;;;3.72;3.42;;;24.40;53.80;;;;;;5016787;28;20247;-72
2022/09/01 08:23:05;;;;;;;4.00;3.70;;;24.40;53.90;;;;;;5030500;28;20204;-72
2022/09/01 08:25:36;;;;;;;4.05;3.65;;;24.40;54.10;;;;;;5017143;28;20192;-72
2022/09/01 08:28:04;;;;;;;4.20;3.80;;;24.30;54.10;;;;;;5017657;28;20630;-72
2022/09/01 08:30:32;;;;;;;3.88;3.58;;;24.30;54.10;;;;;;5017736;28;20211;-72
2022/09/01 08:32:59;;;;;;;4.28;3.92;;;24.30;54.20;;;;;;5018064;28;20650;-72
2022/09/01 08:35:28;;;;;;;4.00;3.70;;;24.30;54.20;;;;;;5018628;28;20219;-72
2022/09/01 08:37:56;;;;;;;4.07;3.60;;;24.30;54.30;;;;;;5017025;28;20203;-72
2022/09/01 08:40:25;;;;;;;4.50;4.10;;;24.30;54.30;;;;;;5016476;28;20742;-72
2022/09/01 08:42:57;;;;;;;4.20;3.90;;;24.30;54.30;;;;;;5016573;28;20249;-72
2022/09/01 08:45:29;;;;;;;4.20;3.90;;;24.30;54.40;;;;;;5016647;28;20196;-72
2022/09/01 08:47:57;;;;;;;4.50;4.00;;;24.30;55.00;;;;;;5016607;28;20290;-72
2022/09/01 08:50:24;;;;;;;4.25;3.90;;;24.50;54.40;;;;;;5000175;28;20559;-72
2022/09/01 08:53:13;;;;;;;3.83;3.53;;;24.50;54.00;;;;;;5034607;28;20218;-72
2022/09/01 08:55:43;;;;;;;4.13;3.72;;;24.60;53.90;;;;;;5016218;28;20600;-72
2022/09/01 08:58:11;;;;;;;4.03;3.72;;;24.60;53.90;;;;;;5016631;28;20670;-72
2022/09/01 09:01:20;;;;;;;4.05;3.75;;;24.70;54.00;;;;;;5017939;28;20293;-72
2022/09/01 09:03:51;;;;;;;4.28;3.78;;;24.70;54.00;;;;;;5016408;28;20246;-74
2022/09/01 09:06:21;;;;;;;4.10;3.80;;;24.60;53.90;;;;;;5016247;28;20204;-71
2022/09/01 09:08:51;;;;;;;4.43;4.13;;;24.70;54.10;;;;;;4999944;28;20206;-72
2022/09/01 09:11:34;;;;;;;4.30;3.90;;;24.60;54.20;;;;;;5016567;28;20227;-72
2022/09/01 09:14:04;;;;;;;4.15;3.85;;;24.60;54.20;;;;;;5016060;28;20294;-72
2022/09/01 09:16:33;;;;;;;4.28;3.92;;;24.60;54.20;;;;;;5016001;28;20200;-72
2022/09/01 09:19:02;;;;;;;4.90;4.28;;;24.60;54.20;;;;;;4999805;28;20697;-72
2022/09/01 09:21:32;;;;;;;4.40;4.05;;;24.60;54.20;;;;;;5016080;28;20219;-72
2022/09/01 09:24:02;;;;;;;4.22;3.92;;;24.60;54.20;;;;;;5016654;28;20180;-72
2022/09/01 09:26:32;;;;;;;4.30;3.90;;;24.60;54.30;;;;;;5015944;28;20245;-72
2022/09/01 09:28:58;;;;;;;4.22;3.83;;;24.60;54.20;;;;;;5015940;28;20200;-72
2022/09/01 09:31:30;;;;;;;4.45;4.05;;;24.60;54.20;;;;;;5016954;28;20231;-72
2022/09/01 09:33:57;;;;;;;4.22;3.92;;;24.60;54.30;;;;;;5020028;28;20220;-72
2022/09/01 09:36:30;;;;;;;4.40;4.10;;;24.60;54.30;;;;;;5019911;28;20206;-72
2022/09/01 09:39:05;;;;;;;4.18;3.88;;;24.70;54.30;;;;;;5020127;28;20274;-72
2022/09/01 09:41:34;;;;;;;4.22;3.92;;;24.70;54.30;;;;;;5021114;28;20265;-72
2022/09/01 09:44:03;;;;;;;4.28;3.97;;;24.70;54.20;;;;;;5020451;28;20200;-72
2022/09/01 09:46:34;;;;;;;4.57;4.18;;;24.70;53.90;;;;;;5003876;28;20207;-72
2022/09/01 09:49:10;;;;;;;4.72;4.32;;;24.70;54.00;;;;;;5027477;28;20192;-72
2022/09/01 09:51:37;;;;;;;4.20;3.90;;;24.80;54.00;;;;;;5044856;28;20202;-72
2022/09/01 09:54:15;;;;;;;4.50;4.20;;;24.90;54.00;;;;;;5020875;28;20216;-72
2022/09/01 09:56:44;;;;;;;4.40;4.07;;;24.90;53.80;;;;;;5039706;28;20175;-72
2022/09/01 09:59:24;;;;;;;4.57;4.15;;;25.00;53.60;;;;;;5021595;28;20245;-72
2022/09/01 10:01:52;;;;;;;4.22;3.92;;;25.00;53.50;;;;;;5020056;28;20248;-72
2022/09/01 10:04:35;;;;;;;4.28;3.95;;;25.10;53.40;;;;;;5019678;28;20204;-72
2022/09/01 10:07:22;;;;;;;4.43;4.10;;;25.10;53.30;;;;;;5019566;28;20651;-72
2022/09/01 10:09:49;;;;;;;4.25;3.95;;;25.20;53.10;;;;;;5019694;28;20226;-72
2022/09/01 10:12:17;;;;;;;4.30;3.90;;;25.20;53.10;;;;;;5019743;28;20315;-72
2022/09/01 10:14:47;;;;;;;4.13;3.83;;;25.20;52.90;;;;;;5019309;28;20266;-72
2022/09/01 10:17:15;;;;;;;4.15;3.85;;;25.20;52.80;;;;;;5019237;28;20628;-72
2022/09/01 10:19:46;;;;;;;3.92;3.63;;;25.20;52.90;;;;;;5003314;28;20219;-72
2022/09/01 10:22:14;;;;;;;4.00;3.70;;;25.20;52.90;;;;;;5019594;28;20239;-72
2022/09/01 10:24:40;;;;;;;4.43;4.03;;;25.20;52.90;;;;;;5002797;28;20269;-72
2022/09/01 10:27:18;;;;;;;4.03;3.72;;;25.20;52.90;;;;;;5019434;28;20238;-72
2022/09/01 10:29:48;;;;;;;4.00;3.70;;;25.20;52.80;;;;;;5019325;28;20188;-72
2022/09/01 10:32:17;;;;;;;3.80;3.50;;;25.30;52.70;;;;;;5036712;28;20208;-72
2022/09/01 10:34:45;;;;;;;3.70;3.50;;;25.30;52.60;;;;;;5018783;28;20253;-72
2022/09/01 10:37:12;;;;;;;3.58;3.35;;;25.30;52.60;;;;;;5019174;28;20287;-72
2022/09/01 10:40:12;;;;;;;3.42;3.22;;;25.30;53.10;;;;;;5018791;28;20207;-72
2022/09/01 10:42:41;;;;;;;4.10;3.80;;;25.30;52.50;;;;;;5018966;28;20199;-72
2022/09/01 10:45:22;;;;;;;3.70;3.50;;;25.40;52.40;;;;;;5036783;28;20558;-72
2022/09/01 10:47:49;;;;;;;3.42;3.20;;;25.40;52.40;;;;;;5018826;28;20203;-72
2022/09/01 10:50:28;;;;;;;3.50;3.20;;;25.40;52.40;;;;;;5018852;28;20667;-72
2022/09/01 10:53:06;;;;;;;3.70;3.50;;;25.40;52.40;;;;;;5019064;28;20203;-72
2022/09/01 10:55:37;;;;;;;3.70;3.40;;;25.30;52.40;;;;;;5018479;28;20219;-72
2022/09/01 10:58:40;;;;;;;3.85;3.45;;;25.30;52.50;;;;;;5018481;28;20358;-72
2022/09/01 11:01:09;;;;;;;3.78;3.42;;;25.30;52.50;;;;;;5018500;28;20749;-72
2022/09/01 11:04:00;;;;;;;3.45;3.25;;;25.30;52.40;;;;;;5018463;28;20608;-72
2022/09/01 11:07:00;;;;;;;3.92;3.63;;;25.30;52.50;;;;;;5018522;28;20200;-72
2022/09/01 11:09:32;;;;;;;3.70;3.40;;;25.30;52.60;;;;;;5018361;28;20192;-72
2022/09/01 11:12:47;;;;;;;3.83;3.53;;;25.30;52.60;;;;;;5018436;28;20239;-72
2022/09/01 11:15:34;;;;;;;3.65;3.35;;;25.30;52.60;;;;;;4951017;28;20591;-72
2022/09/01 11:18:02;;;;;;;3.22;3.03;;;25.30;52.50;;;;;;5014557;28;20239;-72
2022/09/01 11:20:32;;;;;;;3.30;3.10;;;25.30;52.40;;;;;;5018210;28;20231;-73
2022/09/01 11:23:00;;;;;;;3.33;3.13;;;25.40;52.40;;;;;;5018243;28;20677;-72
2022/09/01 11:25:36;;;;;;;3.47;3.17;;;25.40;52.40;;;;;;5035890;28;20189;-72
2022/09/01 11:28:11;;;;;;;3.67;3.42;;;25.40;52.30;;;;;;5018698;28;20279;-72
2022/09/01 11:30:50;;;;;;;3.67;3.38;;;25.40;52.20;;;;;;5017910;28;20302;-72
2022/09/01 11:33:38;;;;;;;3.38;3.17;;;25.40;52.30;;;;;;5017914;28;20708;-72
2022/09/01 11:36:07;;;;;;;3.78;3.47;;;25.50;52.30;;;;;;5016698;28;20219;-72
2022/09/01 11:38:38;;;;;;;3.60;3.30;;;25.50;52.20;;;;;;5017703;28;20557;-72
2022/09/01 11:41:05;;;;;;;3.17;2.97;;;25.50;52.10;;;;;;5017948;28;20224;-72
2022/09/01 11:43:32;;;;;;;3.33;3.13;;;25.50;52.10;;;;;;5017773;28;20633;-72
2022/09/01 11:46:06;;;;;;;3.30;3.10;;;25.50;52.00;;;;;;5017416;28;20192;-72
2022/09/01 11:48:35;;;;;;;3.05;2.85;;;25.60;52.10;;;;;;5017432;28;20648;-72
2022/09/01 11:51:03;;;;;;;3.15;2.95;;;25.50;51.90;;;;;;5017364;28;20226;-72
2022/09/01 11:53:30;;;;;;;3.30;3.10;;;25.60;52.00;;;;;;5001290;28;20572;-72
2022/09/01 11:56:11;;;;;;;3.03;2.83;;;25.60;52.00;;;;;;5035237;28;20215;-72
2022/09/01 11:58:40;;;;;;;3.35;3.05;;;25.60;52.00;;;;;;5017384;28;20235;-72
2022/09/01 12:01:16;;;;;;;3.55;3.20;;;25.60;51.90;;;;;;5017300;28;20220;-72
2022/09/01 12:03:45;;;;;;;3.05;2.85;;;25.60;51.90;;;;;;5017245;28;20200;-72
2022/09/01 12:06:19;;;;;;;3.22;3.03;;;25.60;52.00;;;;;;5017175;28;20551;-72
2022/09/01 12:08:52;;;;;;;3.08;2.88;;;25.60;52.00;;;;;;5017115;28;20238;-72
2022/09/01 12:11:20;;;;;;;3.25;3.05;;;25.60;51.90;;;;;;5017163;28;20713;-72
2022/09/01 12:13:55;;;;;;;3.17;2.97;;;25.70;51.90;;;;;;5016961;28;20200;-72
2022/09/01 12:16:23;;;;;;;3.17;2.90;;;25.70;51.90;;;;;;5017524;28;20210;-72
2022/09/01 12:18:52;;;;;;;3.35;2.97;;;25.70;51.80;;;;;;5016923;28;20203;-72
2022/09/01 12:21:21;;;;;;;3.17;2.97;;;25.70;51.80;;;;;;5016831;28;20227;-72
2022/09/01 12:23:48;;;;;;;3.20;3.00;;;25.70;52.50;;;;;;5017111;28;20679;-72
2022/09/01 12:26:16;;;;;;;3.08;2.88;;;25.70;51.90;;;;;;5016922;28;20234;-72
2022/09/01 12:28:42;;;;;;;3.25;3.00;;;25.70;51.90;;;;;;5017512;28;20591;-72
2022/09/01 12:31:13;;;;;;;3.33;3.13;;;25.60;51.90;;;;;;5017453;28;20258;-72
2022/09/01 12:33:42;;;;;;;3.20;3.00;;;25.60;51.90;;;;;;5035578;28;20183;-72
2022/09/01 12:36:23;;;;;;;3.15;2.95;;;25.60;51.90;;;;;;5018077;28;20220;-72
2022/09/01 12:38:50;;;;;;;3.13;2.83;;;25.60;52.00;;;;;;5017116;28;20642;-72
2022/09/01 12:41:32;;;;;;;2.70;2.50;;;25.60;52.00;;;;;;5017081;28;20674;-72
2022/09/01 12:44:26;;;;;;;3.00;2.80;;;25.60;52.00;;;;;;5034570;28;20706;-72
2022/09/01 12:46:53;;;;;;;3.30;3.10;;;25.60;51.90;;;;;;5016792;28;20567;-72
2022/09/01 12:49:20;;;;;;;3.30;3.10;;;25.60;51.90;;;;;;5017485;28;20224;-72
2022/09/01 12:51:48;;;;;;;3.33;3.08;;;25.60;51.80;;;;;;5018902;28;20216;-72
2022/09/01 12:54:15;;;;;;;2.95;2.75;;;25.60;51.80;;;;;;5017560;28;20295;-72
2022/09/01 12:56:48;;;;;;;2.90;2.70;;;25.60;51.80;;;;;;5016520;28;20211;-72
2022/09/01 12:59:20;;;;;;;3.20;2.88;;;25.60;51.90;;;;;;5016905;28;20195;-72
2022/09/01 13:01:47;;;;;;;2.95;2.75;;;25.60;51.90;;;;;;5017283;28;20219;-72
2022/09/01 13:04:23;;;;;;;3.13;2.92;;;25.60;51.90;;;;;;5016337;28;20199;-72
2022/09/01 13:06:51;;;;;;;3.20;3.00;;;25.60;51.80;;;;;;5033635;28;20208;-72
2022/09/01 13:09:18;;;;;;;2.42;2.30;;;25.60;51.80;;;;;;5016478;28;20203;-72
2022/09/01 13:11:46;;;;;;;3.20;3.00;;;25.60;51.80;;;;;;5033733;28;20212;-72